createdAt,value
2024-01-16T00:02:27.782Z,91.81
2024-01-16T00:05:18.646Z,91.80
2024-01-16T00:08:09.545Z,91.80
2024-01-16T00:11:00.305Z,91.82
2024-01-16T00:13:51.272Z,91.84
2024-01-16T00:16:47.150Z,91.82
2024-01-16T00:19:37.896Z,91.83
2024-01-16T00:22:28.990Z,91.83
2024-01-16T00:25:22.672Z,91.80
2024-01-16T00:28:13.640Z,91.86
2024-01-16T00:31:09.277Z,91.90
2024-01-16T00:34:00.199Z,91.92
2024-01-16T00:36:51.005Z,91.92
2024-01-16T00:39:42.018Z,91.87
2024-01-16T00:42:33.236Z,91.85
2024-01-16T00:45:24.284Z,91.85
2024-01-16T00:48:15.373Z,91.84
2024-01-16T00:51:06.342Z,91.80
2024-01-16T00:53:57.066Z,91.74
2024-01-16T00:56:47.905Z,91.81
2024-01-16T00:59:39.021Z,91.82
2024-01-16T01:02:30.129Z,91.77
2024-01-16T01:05:22.013Z,91.70
2024-01-16T01:08:12.935Z,91.74
2024-01-16T01:11:04.199Z,91.69
2024-01-16T01:13:55.065Z,91.62
2024-01-16T01:16:45.798Z,91.51
2024-01-16T01:19:36.527Z,91.42
2024-01-16T01:22:27.250Z,91.29
2024-01-16T01:25:18.366Z,91.14
2024-01-16T01:28:09.069Z,90.97
2024-01-16T01:30:59.827Z,90.83
2024-01-16T01:33:50.679Z,90.75
2024-01-16T01:36:41.482Z,90.65
2024-01-16T01:39:32.443Z,90.53
2024-01-16T01:42:23.525Z,90.46
2024-01-16T01:45:14.386Z,90.42
2024-01-16T01:48:08.468Z,90.31
2024-01-16T01:51:01.172Z,90.26
2024-01-16T01:53:53.642Z,90.26
2024-01-16T01:56:47.033Z,90.27
2024-01-16T01:59:37.937Z,90.25
2024-01-16T02:02:29.248Z,90.24
2024-01-16T02:05:21.085Z,90.15
2024-01-16T02:08:11.969Z,90.24
2024-01-16T02:11:02.748Z,90.39
2024-01-16T02:13:53.551Z,90.53
2024-01-16T02:16:47.836Z,90.64
2024-01-16T02:19:38.552Z,90.76
2024-01-16T02:22:32.474Z,90.80
2024-01-16T02:25:23.173Z,90.84
2024-01-16T02:28:14.058Z,90.89
2024-01-16T02:31:04.967Z,90.87
2024-01-16T02:33:55.821Z,90.85
2024-01-16T02:36:46.920Z,90.89
2024-01-16T02:39:37.676Z,90.85
2024-01-16T02:42:28.384Z,90.87
2024-01-16T02:45:19.409Z,90.92
2024-01-16T02:48:10.528Z,90.90
2024-01-16T02:51:01.456Z,90.92
2024-01-16T02:53:52.281Z,91.02
2024-01-16T02:56:43.067Z,91.03
2024-01-16T02:59:34.041Z,91.10
2024-01-16T03:02:24.815Z,91.14
2024-01-16T03:05:15.875Z,91.18
2024-01-16T03:08:06.893Z,91.21
2024-01-16T03:10:58.131Z,91.33
2024-01-16T03:13:50.856Z,91.38
2024-01-16T03:16:41.923Z,91.40
2024-01-16T03:19:32.904Z,91.39
2024-01-16T03:22:25.203Z,91.40
2024-01-16T03:25:18.164Z,91.47
2024-01-16T03:28:09.349Z,91.52
2024-01-16T03:31:00.300Z,91.54
2024-01-16T03:33:51.463Z,91.58
2024-01-16T03:36:42.316Z,91.63
2024-01-16T03:39:33.028Z,91.74
2024-01-16T03:42:24.311Z,91.81
2024-01-16T03:45:17.681Z,91.87
2024-01-16T03:48:09.000Z,91.95
2024-01-16T03:50:59.868Z,92.04
2024-01-16T03:53:50.625Z,92.14
2024-01-16T03:56:41.522Z,92.16
2024-01-16T03:59:32.381Z,92.20
2024-01-16T04:02:23.165Z,92.26
2024-01-16T04:05:14.131Z,92.36
2024-01-16T04:08:05.089Z,92.41
2024-01-16T04:10:56.034Z,92.42
2024-01-16T04:13:47.088Z,92.49
2024-01-16T04:16:37.928Z,92.52
2024-01-16T04:19:29.312Z,92.57
2024-01-16T04:22:20.097Z,92.61
2024-01-16T04:25:10.825Z,92.63
2024-01-16T04:28:03.384Z,92.71
2024-01-16T04:30:54.524Z,92.72
2024-01-16T04:33:45.434Z,92.67
2024-01-16T04:36:36.281Z,92.70
2024-01-16T04:39:27.135Z,92.69
2024-01-16T04:42:18.907Z,92.65
2024-01-16T04:45:10.517Z,92.61
2024-01-16T04:48:01.381Z,92.56
2024-01-16T04:50:52.384Z,92.40
2024-01-16T04:53:43.159Z,92.28
2024-01-16T04:56:33.984Z,92.22
2024-01-16T04:59:24.759Z,92.19
2024-01-16T05:02:18.274Z,92.12
2024-01-16T05:05:09.224Z,92.01
2024-01-16T05:08:03.528Z,91.92
2024-01-16T05:10:54.806Z,91.93
2024-01-16T05:13:45.581Z,92.06
2024-01-16T05:16:36.281Z,92.05
2024-01-16T05:19:27.004Z,91.96
2024-01-16T05:22:17.762Z,91.91
2024-01-16T05:25:08.942Z,91.97
2024-01-16T05:27:59.642Z,91.96
2024-01-16T05:30:50.514Z,91.99
2024-01-16T05:36:33.012Z,91.86
2024-01-16T05:39:23.704Z,91.82
2024-01-16T05:42:14.456Z,91.76
2024-01-16T05:45:05.865Z,91.70
2024-01-16T05:47:57.783Z,91.65
2024-01-16T05:50:49.244Z,91.62
2024-01-16T05:53:40.183Z,91.58
2024-01-16T05:56:33.300Z,91.58
2024-01-16T05:59:24.257Z,91.53
2024-01-16T06:02:15.622Z,91.44
2024-01-16T06:05:07.272Z,91.44
2024-01-16T06:07:57.966Z,91.46
2024-01-16T06:10:48.657Z,91.47
2024-01-16T06:13:40.483Z,91.47
2024-01-16T06:16:31.262Z,91.45
2024-01-16T06:19:22.486Z,91.41
2024-01-16T06:22:13.352Z,91.43
2024-01-16T06:25:04.624Z,91.45
2024-01-16T06:27:55.313Z,91.52
2024-01-16T06:30:46.172Z,91.42
2024-01-16T06:33:37.379Z,91.47
2024-01-16T06:36:28.299Z,91.45
2024-01-16T06:39:19.308Z,91.45
2024-01-16T06:42:11.473Z,91.48
2024-01-16T06:45:02.995Z,91.47
2024-01-16T06:47:53.885Z,91.51
2024-01-16T06:50:44.777Z,91.50
2024-01-16T06:53:37.957Z,91.52
2024-01-16T06:56:29.061Z,91.51
2024-01-16T06:59:20.890Z,91.53
2024-01-16T07:02:11.845Z,91.57
2024-01-16T07:05:02.669Z,91.58
2024-01-16T07:07:53.513Z,91.53
2024-01-16T07:10:44.383Z,91.50
2024-01-16T07:13:36.177Z,91.52
2024-01-16T07:16:27.033Z,91.56
2024-01-16T07:19:17.899Z,91.54
2024-01-16T07:22:08.662Z,91.51
2024-01-16T07:24:59.465Z,91.47
2024-01-16T07:27:50.978Z,91.54
2024-01-16T07:30:41.723Z,91.52
2024-01-16T07:33:33.431Z,91.53
2024-01-16T07:36:24.196Z,91.51
2024-01-16T07:39:15.361Z,91.41
2024-01-16T07:42:06.145Z,91.35
2024-01-16T07:44:57.243Z,91.39
2024-01-16T07:47:48.560Z,91.40
2024-01-16T07:50:39.333Z,91.41
2024-01-16T07:53:30.160Z,91.61
2024-01-16T07:56:20.878Z,91.71
2024-01-16T07:59:11.714Z,91.55
2024-01-16T08:02:02.510Z,91.39
2024-01-16T08:04:53.243Z,90.91
2024-01-16T08:07:44.825Z,90.70
2024-01-16T08:10:35.601Z,90.72
2024-01-16T08:13:26.504Z,90.60
2024-01-16T08:16:17.270Z,90.20
2024-01-16T08:19:08.952Z,89.97
2024-01-16T08:21:59.774Z,89.54
2024-01-16T08:24:50.699Z,89.25
2024-01-16T08:27:41.392Z,89.16
2024-01-16T08:30:32.138Z,88.49
2024-01-16T08:33:31.091Z,88.20
2024-01-16T08:36:27.669Z,88.29
2024-01-16T08:39:18.504Z,88.30
2024-01-16T08:42:12.939Z,88.34
2024-01-16T08:45:04.289Z,88.73
2024-01-16T08:47:55.234Z,89.15
2024-01-16T08:50:46.790Z,89.31
2024-01-16T08:53:37.690Z,89.23
2024-01-16T08:56:28.444Z,89.24
2024-01-16T08:59:19.473Z,89.11
2024-01-16T09:02:10.268Z,89.27
2024-01-16T09:05:01.164Z,89.39
2024-01-16T09:07:53.815Z,88.96
2024-01-16T09:10:45.211Z,88.72
2024-01-16T09:13:36.136Z,88.81
2024-01-16T09:16:26.976Z,88.67
2024-01-16T09:19:17.829Z,88.62
2024-01-16T09:22:08.603Z,88.72
2024-01-16T09:24:59.525Z,88.86
2024-01-16T09:27:50.326Z,88.71
2024-01-16T09:30:41.090Z,88.75
2024-01-16T09:33:31.968Z,88.94
2024-01-16T09:36:22.780Z,89.10
2024-01-16T09:39:16.622Z,89.14
2024-01-16T09:42:08.206Z,89.22
2024-01-16T09:45:01.913Z,89.22
2024-01-16T09:47:54.437Z,89.19
2024-01-16T09:50:45.684Z,89.25
2024-01-16T09:53:36.559Z,89.24
2024-01-16T09:56:29.353Z,89.13
2024-01-16T09:59:22.079Z,89.17
2024-01-16T10:02:14.516Z,89.39
2024-01-16T10:05:06.141Z,89.22
2024-01-16T10:07:57.139Z,89.24
2024-01-16T10:10:50.238Z,89.38
2024-01-16T10:13:47.414Z,88.97
2024-01-16T10:17:01.307Z,88.78
2024-01-16T10:19:54.356Z,88.23
2024-01-16T10:22:54.956Z,87.65
2024-01-16T10:25:45.776Z,87.29
2024-01-16T10:28:41.776Z,86.65
2024-01-16T10:31:32.945Z,86.53
2024-01-16T10:34:25.367Z,86.15
2024-01-16T10:37:16.904Z,85.47
2024-01-16T10:40:09.057Z,85.19
2024-01-16T10:43:05.552Z,85.07
2024-01-16T10:46:17.961Z,85.02
2024-01-16T10:49:08.776Z,85.12
2024-01-16T10:51:59.521Z,85.25
2024-01-16T10:54:51.895Z,85.32
2024-01-16T10:57:44.030Z,85.18
2024-01-16T11:00:40.766Z,85.15
2024-01-16T11:03:51.606Z,85.42
2024-01-16T11:06:43.922Z,85.82
2024-01-16T11:09:36.300Z,86.05
2024-01-16T11:12:27.948Z,86.21
2024-01-16T11:15:18.995Z,86.41
2024-01-16T11:18:11.705Z,86.59
2024-01-16T11:21:08.943Z,86.72
2024-01-16T11:24:01.754Z,86.88
2024-01-16T11:26:52.691Z,86.92
2024-01-16T11:29:43.569Z,87.07
2024-01-16T11:32:45.365Z,86.74
2024-01-16T11:35:38.421Z,86.49
2024-01-16T11:38:31.040Z,86.28
2024-01-16T11:41:57.677Z,86.21
2024-01-16T11:44:57.196Z,86.41
2024-01-16T11:47:48.018Z,86.79
2024-01-16T11:50:39.656Z,86.80
2024-01-16T11:53:42.799Z,86.55
2024-01-16T11:57:10.057Z,86.66
2024-01-16T12:00:14.009Z,86.91
2024-01-16T12:03:05.870Z,86.68
2024-01-16T12:06:00.847Z,86.73
2024-01-16T12:08:51.683Z,86.96
2024-01-16T12:11:46.585Z,86.87
2024-01-16T12:14:37.609Z,86.53
2024-01-16T12:17:28.700Z,86.33
2024-01-16T12:20:20.952Z,86.21
2024-01-16T12:23:11.873Z,86.19
2024-01-16T12:26:04.744Z,86.56
2024-01-16T12:28:59.532Z,86.36
2024-01-16T12:31:51.284Z,86.38
2024-01-16T12:34:50.051Z,86.30
2024-01-16T12:37:41.023Z,86.34
2024-01-16T12:40:31.926Z,86.27
2024-01-16T12:43:22.706Z,86.28
2024-01-16T12:46:13.482Z,85.86
2024-01-16T12:49:06.443Z,85.92
2024-01-16T12:52:21.585Z,85.86
2024-01-16T12:55:15.251Z,85.92
2024-01-16T12:58:28.244Z,86.54
2024-01-16T13:01:38.494Z,86.82
2024-01-16T13:04:30.981Z,86.25
2024-01-16T13:07:21.804Z,86.08
2024-01-16T13:10:17.199Z,86.44
2024-01-16T13:13:19.504Z,86.47
2024-01-16T13:16:10.273Z,86.44
2024-01-16T13:19:06.256Z,86.52
2024-01-16T13:21:57.145Z,86.55
2024-01-16T13:24:54.656Z,86.55
2024-01-16T13:27:52.722Z,86.36
2024-01-16T13:30:47.738Z,86.39
2024-01-16T13:33:39.012Z,86.34
2024-01-16T13:36:47.068Z,86.34
2024-01-16T13:39:41.127Z,86.50
2024-01-16T13:42:33.105Z,86.70
2024-01-16T13:45:24.087Z,86.86
2024-01-16T13:48:15.193Z,86.90
2024-01-16T13:51:05.980Z,86.90
2024-01-16T13:53:56.884Z,86.77
2024-01-16T13:56:59.431Z,86.72
2024-01-16T13:59:57.535Z,86.71
2024-01-16T14:02:50.185Z,86.83
2024-01-16T14:05:43.468Z,87.10
2024-01-16T14:08:34.410Z,87.35
2024-01-16T14:11:25.149Z,87.42
2024-01-16T14:14:15.929Z,87.49
2024-01-16T14:17:06.923Z,87.58
2024-01-16T14:19:57.685Z,87.64
2024-01-16T14:22:48.588Z,87.77
2024-01-16T14:25:39.325Z,87.88
2024-01-16T14:28:30.629Z,87.97
2024-01-16T14:31:21.557Z,88.14
2024-01-16T14:34:15.668Z,88.31
2024-01-16T14:37:06.708Z,88.45
2024-01-16T14:39:57.862Z,88.72
2024-01-16T14:42:54.659Z,88.91
2024-01-16T14:45:45.449Z,89.09
2024-01-16T14:48:36.605Z,89.33
2024-01-16T14:51:27.625Z,89.49
2024-01-16T14:54:19.319Z,89.69
2024-01-16T14:57:11.160Z,89.80
2024-01-16T15:00:02.014Z,89.99
2024-01-16T15:02:56.210Z,89.99
2024-01-16T15:05:49.232Z,90.01
2024-01-16T15:08:40.391Z,90.07
2024-01-16T15:11:31.175Z,90.19
2024-01-16T15:14:21.891Z,90.20
2024-01-16T15:17:12.783Z,90.28
2024-01-16T15:20:05.686Z,90.32
2024-01-16T15:22:57.731Z,90.35
2024-01-16T15:25:48.411Z,90.45
2024-01-16T15:28:42.532Z,90.45
2024-01-16T15:31:34.996Z,90.19
2024-01-16T15:34:26.306Z,90.36
2024-01-16T15:37:17.569Z,90.17
2024-01-16T15:40:14.197Z,90.37
2024-01-16T15:43:06.046Z,90.56
2024-01-16T15:45:56.771Z,90.83
2024-01-16T15:48:47.628Z,91.05
2024-01-16T15:51:38.340Z,91.30
2024-01-16T15:54:31.552Z,91.48
2024-01-16T15:57:22.458Z,91.56
2024-01-16T16:00:13.476Z,91.50
2024-01-16T16:03:04.541Z,91.41
2024-01-16T16:05:55.495Z,91.28
2024-01-16T16:08:46.648Z,91.19
2024-01-16T16:11:50.499Z,91.23
2024-01-16T16:14:41.715Z,91.14
2024-01-16T16:17:32.617Z,91.17
2024-01-16T16:20:25.807Z,91.24
2024-01-16T16:23:16.759Z,91.22
2024-01-16T16:26:07.541Z,91.30
2024-01-16T16:29:05.323Z,91.23
2024-01-16T16:31:56.062Z,91.09
2024-01-16T16:34:48.427Z,91.15
2024-01-16T16:37:39.152Z,91.13
2024-01-16T16:40:29.965Z,91.02
2024-01-16T16:43:20.706Z,90.92
2024-01-16T16:46:18.014Z,90.87
2024-01-16T16:49:08.916Z,90.63
2024-01-16T16:51:59.663Z,90.41
2024-01-16T16:54:50.600Z,90.20
2024-01-16T16:57:41.315Z,90.41
2024-01-16T17:00:32.423Z,90.17
2024-01-16T17:03:23.127Z,89.84
2024-01-16T17:06:17.354Z,89.90
2024-01-16T17:09:08.469Z,90.05
2024-01-16T17:11:59.769Z,89.83
2024-01-16T17:14:52.833Z,89.40
2024-01-16T17:17:43.766Z,89.45
2024-01-16T17:20:34.561Z,89.65
2024-01-16T17:23:25.369Z,89.41
2024-01-16T17:26:16.692Z,89.32
2024-01-16T17:29:07.528Z,89.24
2024-01-16T17:31:59.567Z,89.24
2024-01-16T17:34:50.658Z,89.39
2024-01-16T17:37:41.397Z,89.78
2024-01-16T17:40:32.970Z,89.90
2024-01-16T17:43:23.766Z,89.77
2024-01-16T17:46:14.478Z,89.81
2024-01-16T17:49:05.249Z,89.85
2024-01-16T17:51:56.050Z,89.90
2024-01-16T17:54:46.875Z,89.94
2024-01-16T17:57:37.738Z,89.94
2024-01-16T18:00:30.605Z,89.90
2024-01-16T18:03:36.870Z,89.68
2024-01-16T18:06:35.688Z,89.37
2024-01-16T18:09:30.009Z,89.39
2024-01-16T18:12:22.493Z,89.21
2024-01-16T18:15:13.278Z,89.25
2024-01-16T18:18:06.177Z,89.16
2024-01-16T18:20:57.055Z,89.17
2024-01-16T18:23:48.512Z,89.43
2024-01-16T18:26:44.042Z,89.52
2024-01-16T18:29:38.260Z,89.69
2024-01-16T18:32:29.250Z,89.80
2024-01-16T18:35:20.509Z,89.75
2024-01-16T18:38:12.447Z,89.84
2024-01-16T18:41:05.232Z,90.17
2024-01-16T18:43:56.220Z,90.25
2024-01-16T18:46:47.056Z,90.21
2024-01-16T18:49:37.872Z,90.01
2024-01-16T18:52:28.675Z,90.04
2024-01-16T18:55:19.598Z,89.68
2024-01-16T18:58:13.688Z,89.52
2024-01-16T19:01:04.828Z,89.41
2024-01-16T19:04:00.281Z,89.57
2024-01-16T19:06:52.920Z,89.69
2024-01-16T19:09:46.535Z,89.80
2024-01-16T19:12:37.427Z,89.85
2024-01-16T19:15:28.312Z,89.68
2024-01-16T19:18:19.132Z,89.42
2024-01-16T19:21:10.770Z,89.50
2024-01-16T19:24:01.666Z,89.53
2024-01-16T19:26:52.463Z,89.56
2024-01-16T19:29:43.422Z,89.50
2024-01-16T19:32:35.227Z,89.34
2024-01-16T19:35:26.245Z,89.35
2024-01-16T19:38:17.563Z,89.51
2024-01-16T19:41:10.539Z,89.34
2024-01-16T19:44:01.885Z,89.23
2024-01-16T19:46:54.279Z,89.18
2024-01-16T19:49:45.154Z,89.26
2024-01-16T19:52:36.893Z,89.46
2024-01-16T19:55:27.700Z,89.61
2024-01-16T19:58:18.426Z,89.57
2024-01-16T20:01:09.424Z,89.61
2024-01-16T20:04:01.646Z,89.64
2024-01-16T20:06:55.068Z,89.70
2024-01-16T20:09:45.892Z,89.72
2024-01-16T20:12:40.522Z,89.64
2024-01-16T20:15:33.426Z,89.58
2024-01-16T20:18:24.284Z,89.60
2024-01-16T20:21:16.301Z,89.68
2024-01-16T20:24:08.399Z,89.51
2024-01-16T20:27:00.597Z,89.50
2024-01-16T20:29:51.426Z,89.62
2024-01-16T20:32:44.320Z,89.51
2024-01-16T20:35:35.307Z,89.30
2024-01-16T20:38:26.244Z,89.00
2024-01-16T20:41:17.809Z,88.71
2024-01-16T20:44:08.633Z,88.74
2024-01-16T20:47:03.119Z,88.49
2024-01-16T20:49:53.960Z,88.61
2024-01-16T20:52:44.706Z,88.64
2024-01-16T20:55:36.131Z,88.70
2024-01-16T20:58:27.905Z,88.77
2024-01-16T21:01:18.701Z,88.70
2024-01-16T21:04:09.627Z,88.50
2024-01-16T21:07:04.809Z,88.61
2024-01-16T21:09:55.970Z,88.56
2024-01-16T21:12:47.425Z,88.36
2024-01-16T21:15:38.228Z,88.51
2024-01-16T21:18:32.399Z,88.43
2024-01-16T21:21:24.279Z,88.36
2024-01-16T21:24:15.622Z,88.35
2024-01-16T21:27:06.492Z,88.29
2024-01-16T21:29:57.606Z,88.31
2024-01-16T21:32:48.623Z,88.15
2024-01-16T21:35:42.843Z,88.06
2024-01-16T21:38:33.739Z,87.96
2024-01-16T21:41:24.502Z,87.96
2024-01-16T21:44:15.311Z,88.04
2024-01-16T21:47:06.069Z,88.05
2024-01-16T21:49:58.383Z,88.15
2024-01-16T21:52:50.898Z,88.11
2024-01-16T21:55:41.587Z,88.16
2024-01-16T21:58:32.351Z,88.17
2024-01-16T22:01:23.109Z,88.11
2024-01-16T22:04:14.591Z,88.14
2024-01-16T22:07:05.420Z,87.97
2024-01-16T22:09:57.468Z,87.85
2024-01-16T22:12:48.496Z,87.74
2024-01-16T22:15:39.244Z,87.76
2024-01-16T22:18:30.046Z,87.79
2024-01-16T22:21:21.901Z,87.84
2024-01-16T22:24:14.211Z,87.88
2024-01-16T22:27:05.587Z,87.70
2024-01-16T22:29:56.348Z,87.53
2024-01-16T22:32:47.558Z,87.74
2024-01-16T22:35:38.586Z,87.69
2024-01-16T22:38:29.450Z,87.60
2024-01-16T22:41:20.889Z,87.55
2024-01-16T22:44:12.002Z,87.47
2024-01-16T22:47:02.768Z,87.42
2024-01-16T22:49:53.613Z,87.35
2024-01-16T22:52:44.479Z,87.35
2024-01-16T22:55:35.515Z,87.40
2024-01-16T22:58:26.228Z,87.33
2024-01-16T23:01:17.637Z,87.34
2024-01-16T23:04:08.514Z,87.32
2024-01-16T23:06:59.376Z,87.25
2024-01-16T23:09:50.266Z,87.24
2024-01-16T23:12:42.026Z,87.30
2024-01-16T23:15:32.766Z,87.36
2024-01-16T23:18:23.618Z,87.42
2024-01-16T23:21:15.666Z,87.57
2024-01-16T23:24:06.499Z,87.78
2024-01-16T23:26:57.298Z,88.20
2024-01-16T23:29:48.007Z,88.27
2024-01-16T23:32:39.248Z,88.32
2024-01-16T23:35:30.206Z,88.37
2024-01-16T23:38:21.149Z,88.56
2024-01-16T23:41:12.008Z,88.69
2024-01-16T23:44:02.789Z,88.76
2024-01-16T23:46:53.457Z,88.63
2024-01-16T23:49:44.241Z,88.43
2024-01-16T23:52:35.063Z,88.27
2024-01-16T23:55:25.801Z,87.98
2024-01-16T23:58:16.566Z,87.65
